Time;durP1;ratioP1;P1;durP2;ratioP2;P2;SDS_P1;SDS_P2;PMS_P1;PMS_P2;Temp;Humidity;BMP_temperature;BMP_pressure;BME280_temperature;BME280_humidity;BME280_pressure;Samples;Min_cycle;Max_cycle;Signal;HPM_P1;HPM_P2
2022/07/30 00:02:21;;;;;;;13.45;12.25;;;;;;;;;;4958571;28;20035;-70
2022/07/30 00:04:47;;;;;;;13.93;12.05;;;;;;;;;;4956797;28;20663;-70
2022/07/30 00:07:13;;;;;;;11.88;10.85;;;;;;;;;;4962679;28;20064;-70
2022/07/30 00:09:38;;;;;;;11.40;10.32;;;;;;;;;;4963210;28;20107;-70
2022/07/30 00:12:05;;;;;;;14.23;12.73;;;;;;;;;;4962635;28;20157;-70
2022/07/30 00:14:33;;;;;;;13.48;12.25;;;;;;;;;;4966258;28;20038;-70
2022/07/30 00:17:02;;;;;;;13.43;11.90;;;;;;;;;;4980312;28;20136;-70
2022/07/30 00:19:28;;;;;;;15.25;12.40;;;;;;;;;;4965474;28;20070;-70
2022/07/30 00:21:53;;;;;;;13.70;12.30;;;;;;;;;;4970028;28;20039;-70
2022/07/30 00:24:20;;;;;;;12.05;11.07;;;;;;;;;;4975690;28;20068;-70
2022/07/30 00:26:46;;;;;;;13.10;11.85;;;;;;;;;;4981156;28;20029;-70
2022/07/30 00:29:12;;;;;;;16.17;12.85;;;;;;;;;;4960463;28;20053;-70
2022/07/30 00:31:38;;;;;;;13.70;12.00;;;;;;;;;;4988643;28;20426;-69
2022/07/30 00:34:04;;;;;;;11.48;9.80;;;;;;;;;;5001748;28;20052;-70
2022/07/30 00:36:29;;;;;;;10.60;9.60;;;;;;;;;;4981494;28;20031;-70
2022/07/30 00:38:55;;;;;;;10.55;9.65;;;;;;;;;;4969983;28;20118;-70
2022/07/30 00:41:21;;;;;;;9.32;8.38;;;;;;;;;;4971642;28;20036;-70
2022/07/30 00:43:47;;;;;;;10.73;8.82;;;;;;;;;;4985517;28;20029;-70
2022/07/30 00:46:13;;;;;;;9.45;8.50;;;;;;;;;;4978650;28;20046;-70
2022/07/30 00:48:39;;;;;;;9.02;8.20;;;;;;;;;;4950952;28;20028;-70
2022/07/30 00:51:05;;;;;;;11.77;8.73;;;;;;;;;;4974492;28;20035;-70
2022/07/30 00:53:31;;;;;;;10.18;9.32;;;;;;;;;;5002628;28;20033;-70
2022/07/30 00:55:57;;;;;;;9.63;8.65;;;;;;;;;;4986745;28;20148;-70
2022/07/30 00:58:22;;;;;;;10.15;9.13;;;;;;;;;;4963763;28;20438;-70
2022/07/30 01:00:48;;;;;;;10.05;9.15;;;;;;;;;;4963562;28;20039;-70
2022/07/30 01:03:14;;;;;;;10.05;9.25;;;;;;;;;;4984185;28;20043;-71
2022/07/30 01:05:39;;;;;;;10.95;8.95;;;;;;;;;;4981642;28;20070;-70
2022/07/30 01:08:05;;;;;;;9.90;9.13;;;;;;;;;;4993093;28;20057;-70
2022/07/30 01:10:31;;;;;;;10.77;9.77;;;;;;;;;;4980210;28;20046;-70
2022/07/30 01:12:58;;;;;;;10.90;9.77;;;;;;;;;;4967648;28;20513;-65
2022/07/30 01:15:24;;;;;;;10.75;9.82;;;;;;;;;;4956518;28;20537;-70
2022/07/30 01:17:52;;;;;;;11.23;10.18;;;;;;;;;;4958117;28;20083;-70
2022/07/30 01:20:24;;;;;;;11.70;10.52;;;;;;;;;;4988360;28;20042;-70
2022/07/30 01:23:05;;;;;;;11.07;10.18;;;;;;;;;;4984613;28;20042;-70
2022/07/30 01:25:33;;;;;;;11.05;9.93;;;;;;;;;;4959908;28;20035;-70
2022/07/30 01:28:07;;;;;;;12.40;11.00;;;;;;;;;;4983290;28;20448;-70
2022/07/30 01:30:38;;;;;;;11.10;10.10;;;;;;;;;;4976258;28;20042;-70
2022/07/30 01:33:06;;;;;;;10.73;9.82;;;;;;;;;;4969241;28;20071;-70
2022/07/30 01:35:34;;;;;;;11.23;10.15;;;;;;;;;;4956027;28;20124;-70
2022/07/30 01:38:02;;;;;;;11.43;10.53;;;;;;;;;;4986273;28;20051;-69
2022/07/30 01:40:28;;;;;;;11.63;10.63;;;;;;;;;;4987589;28;20303;-70
2022/07/30 01:42:57;;;;;;;12.70;11.05;;;;;;;;;;4962825;28;20423;-70
2022/07/30 01:45:25;;;;;;;15.57;11.55;;;;;;;;;;4995532;28;20046;-70
2022/07/30 01:47:52;;;;;;;12.63;11.25;;;;;;;;;;5003402;28;20031;-70
2022/07/30 01:50:21;;;;;;;11.63;10.50;;;;;;;;;;5024804;28;20183;-70
2022/07/30 01:52:50;;;;;;;12.15;10.98;;;;;;;;;;4955177;28;20042;-70
2022/07/30 01:55:19;;;;;;;11.95;10.77;;;;;;;;;;4973259;28;20033;-70
2022/07/30 01:57:47;;;;;;;12.07;11.00;;;;;;;;;;4966750;28;20042;-70
2022/07/30 02:00:16;;;;;;;12.80;11.23;;;;;;;;;;4970644;28;20047;-70
2022/07/30 02:02:47;;;;;;;11.00;10.10;;;;;;;;;;4982103;28;20031;-70
2022/07/30 02:05:14;;;;;;;11.18;10.18;;;;;;;;;;4967018;28;20040;-70
2022/07/30 02:07:41;;;;;;;11.38;10.25;;;;;;;;;;4997419;28;20043;-70
2022/07/30 02:10:12;;;;;;;11.88;10.77;;;;;;;;;;4972697;28;20803;-70
2022/07/30 02:12:50;;;;;;;10.77;9.88;;;;;;;;;;4971400;28;20110;-70
2022/07/30 02:15:30;;;;;;;11.05;10.20;;;;;;;;;;4962386;28;20131;-70
2022/07/30 02:18:02;;;;;;;12.18;10.98;;;;;;;;;;4978013;28;20047;-70
2022/07/30 02:20:30;;;;;;;11.50;10.40;;;;;;;;;;4952479;28;20035;-69
2022/07/30 02:23:05;;;;;;;10.73;9.65;;;;;;;;;;4961473;28;20042;-71
2022/07/30 02:25:33;;;;;;;11.52;10.38;;;;;;;;;;4976139;28;20070;-70
2022/07/30 02:28:05;;;;;;;11.50;10.05;;;;;;;;;;4963019;28;20153;-70
2022/07/30 02:30:35;;;;;;;10.35;9.60;;;;;;;;;;4967783;28;20493;-69
2022/07/30 02:33:12;;;;;;;11.20;10.20;;;;;;;;;;4956777;28;20089;-70
2022/07/30 02:35:39;;;;;;;10.57;9.75;;;;;;;;;;4958385;28;20028;-70
2022/07/30 02:38:07;;;;;;;11.40;10.25;;;;;;;;;;4979376;28;20035;-70
2022/07/30 02:40:34;;;;;;;11.30;10.40;;;;;;;;;;4980508;28;20037;-71
2022/07/30 02:43:00;;;;;;;10.77;9.85;;;;;;;;;;4976451;28;20046;-70
2022/07/30 02:45:29;;;;;;;11.00;10.10;;;;;;;;;;4985701;28;20480;-70
2022/07/30 02:48:07;;;;;;;12.57;10.87;;;;;;;;;;4979125;28;20067;-70
2022/07/30 02:50:34;;;;;;;11.80;10.60;;;;;;;;;;4989938;28;20295;-70
2022/07/30 02:53:02;;;;;;;11.75;10.75;;;;;;;;;;4967302;28;20038;-70
2022/07/30 02:55:30;;;;;;;11.40;10.50;;;;;;;;;;4993655;28;20039;-70
2022/07/30 02:57:57;;;;;;;12.23;11.07;;;;;;;;;;4961872;28;20097;-70
2022/07/30 03:00:24;;;;;;;12.38;11.23;;;;;;;;;;4967913;28;20033;-70
2022/07/30 03:02:52;;;;;;;14.68;11.52;;;;;;;;;;4978697;28;20037;-70
2022/07/30 03:05:18;;;;;;;12.77;11.57;;;;;;;;;;4976332;28;20502;-70
2022/07/30 03:07:45;;;;;;;13.25;12.02;;;;;;;;;;4960933;28;20031;-70
2022/07/30 03:10:11;;;;;;;16.17;12.38;;;;;;;;;;5003288;28;20044;-70
2022/07/30 03:12:40;;;;;;;13.65;12.35;;;;;;;;;;4952016;28;20077;-70
2022/07/30 03:15:06;;;;;;;13.00;11.80;;;;;;;;;;4996488;28;20758;-70
2022/07/30 03:17:43;;;;;;;12.23;11.10;;;;;;;;;;4962229;28;20047;-70
2022/07/30 03:20:12;;;;;;;12.77;11.73;;;;;;;;;;4968289;28;20549;-70
2022/07/30 03:22:49;;;;;;;13.07;11.85;;;;;;;;;;5002272;28;20025;-70
2022/07/30 03:25:22;;;;;;;13.05;11.88;;;;;;;;;;4984770;28;20039;-70
2022/07/30 03:27:51;;;;;;;12.55;11.32;;;;;;;;;;4970854;28;20061;-70
2022/07/30 03:30:16;;;;;;;12.82;11.35;;;;;;;;;;4991909;28;20039;-70
2022/07/30 03:32:43;;;;;;;12.65;11.60;;;;;;;;;;4967979;28;20106;-71
2022/07/30 03:35:09;;;;;;;13.10;11.75;;;;;;;;;;4993913;28;20068;-71
2022/07/30 03:37:37;;;;;;;13.68;12.35;;;;;;;;;;4979148;28;20551;-71
2022/07/30 03:40:05;;;;;;;14.30;12.88;;;;;;;;;;5008358;28;20565;-70
2022/07/30 03:42:33;;;;;;;14.23;12.57;;;;;;;;;;4976333;28;20039;-72
2022/07/30 03:45:05;;;;;;;14.40;13.10;;;;;;;;;;4985217;28;20858;-71
2022/07/30 03:47:35;;;;;;;14.65;13.23;;;;;;;;;;4964527;28;20036;-71
2022/07/30 03:50:02;;;;;;;14.52;13.25;;;;;;;;;;4998927;28;20461;-70
2022/07/30 03:52:37;;;;;;;15.40;13.93;;;;;;;;;;4981562;28;20058;-70
2022/07/30 03:55:04;;;;;;;14.40;13.13;;;;;;;;;;4990321;28;20039;-71
2022/07/30 03:57:44;;;;;;;13.60;12.50;;;;;;;;;;4949285;28;20046;-71
2022/07/30 04:00:14;;;;;;;13.80;12.60;;;;;;;;;;4999961;28;20036;-71
2022/07/30 04:02:45;;;;;;;13.68;12.25;;;;;;;;;;4993580;28;20041;-71
2022/07/30 04:05:29;;;;;;;14.18;12.80;;;;;;;;;;4952156;28;20046;-71
2022/07/30 04:07:58;;;;;;;13.50;12.40;;;;;;;;;;5003105;28;20034;-71
2022/07/30 04:10:25;;;;;;;12.45;11.32;;;;;;;;;;4957225;28;20077;-70
2022/07/30 04:12:56;;;;;;;13.40;12.10;;;;;;;;;;4957806;28;20042;-71
2022/07/30 04:15:22;;;;;;;13.10;11.80;;;;;;;;;;4982610;28;20039;-71
2022/07/30 04:17:54;;;;;;;13.60;12.30;;;;;;;;;;4969391;28;20039;-71
2022/07/30 04:20:23;;;;;;;13.48;12.27;;;;;;;;;;4970426;28;20034;-70
2022/07/30 04:22:50;;;;;;;13.48;12.32;;;;;;;;;;4971947;28;20114;-70
2022/07/30 04:25:17;;;;;;;12.65;11.43;;;;;;;;;;4984649;28;20043;-70
2022/07/30 04:27:43;;;;;;;13.85;12.55;;;;;;;;;;4981918;28;20082;-70
2022/07/30 04:30:10;;;;;;;12.98;11.65;;;;;;;;;;4962356;28;20043;-70
2022/07/30 04:32:38;;;;;;;12.93;11.55;;;;;;;;;;4970232;28;20033;-70
2022/07/30 04:35:28;;;;;;;12.85;11.75;;;;;;;;;;4961334;28;20035;-71
2022/07/30 04:38:14;;;;;;;13.32;11.60;;;;;;;;;;4991186;28;20037;-70
2022/07/30 04:40:42;;;;;;;11.45;10.50;;;;;;;;;;4968916;28;20055;-70
2022/07/30 04:43:08;;;;;;;11.63;10.60;;;;;;;;;;4964791;28;20581;-71
2022/07/30 04:45:38;;;;;;;11.70;10.65;;;;;;;;;;4975337;28;20063;-70
2022/07/30 04:48:05;;;;;;;12.10;11.00;;;;;;;;;;4997542;28;20037;-71
2022/07/30 04:50:52;;;;;;;11.80;10.55;;;;;;;;;;4979142;28;20038;-70
2022/07/30 04:53:19;;;;;;;13.40;11.02;;;;;;;;;;4959709;28;20490;-70
2022/07/30 04:55:51;;;;;;;12.07;11.10;;;;;;;;;;4976214;28;20114;-70
2022/07/30 04:58:20;;;;;;;12.35;10.98;;;;;;;;;;4958273;28;20039;-70
2022/07/30 05:00:48;;;;;;;15.68;10.68;;;;;;;;;;4961599;28;20061;-71
2022/07/30 05:03:16;;;;;;;13.40;11.38;;;;;;;;;;4984040;28;20035;-71
2022/07/30 05:05:49;;;;;;;13.43;12.10;;;;;;;;;;4969165;28;20031;-70
2022/07/30 05:08:15;;;;;;;12.45;11.35;;;;;;;;;;4966443;28;20564;-70
2022/07/30 05:10:43;;;;;;;11.98;10.95;;;;;;;;;;4979420;28;20075;-70
2022/07/30 05:13:13;;;;;;;13.43;12.02;;;;;;;;;;4977126;28;20051;-70
2022/07/30 05:15:40;;;;;;;12.55;11.25;;;;;;;;;;4984903;28;20108;-70
2022/07/30 05:18:08;;;;;;;13.50;10.73;;;;;;;;;;4997809;28;20156;-71
2022/07/30 05:20:38;;;;;;;12.35;11.18;;;;;;;;;;4974820;28;20106;-71
2022/07/30 05:23:10;;;;;;;12.00;10.80;;;;;;;;;;4985962;28;20524;-70
2022/07/30 05:25:38;;;;;;;11.98;10.77;;;;;;;;;;4986669;28;20046;-71
2022/07/30 05:28:14;;;;;;;12.15;10.82;;;;;;;;;;4994496;28;20023;-70
2022/07/30 05:30:39;;;;;;;12.68;10.70;;;;;;;;;;4985566;28;20037;-71
2022/07/30 05:33:05;;;;;;;11.13;10.13;;;;;;;;;;4975536;28;20169;-71
2022/07/30 05:35:31;;;;;;;11.55;10.48;;;;;;;;;;4963077;28;20037;-71
2022/07/30 05:37:58;;;;;;;11.13;10.10;;;;;;;;;;4978008;28;20052;-71
2022/07/30 05:40:26;;;;;;;11.23;10.13;;;;;;;;;;4974711;28;20051;-71
2022/07/30 05:42:52;;;;;;;11.20;9.85;;;;;;;;;;4966158;28;20035;-71
2022/07/30 05:45:18;;;;;;;11.30;10.30;;;;;;;;;;4978717;28;20055;-71
2022/07/30 05:47:45;;;;;;;11.48;10.32;;;;;;;;;;4984248;28;20033;-71
2022/07/30 05:50:11;;;;;;;10.98;9.85;;;;;;;;;;4990472;28;20514;-71
2022/07/30 05:52:37;;;;;;;11.20;10.20;;;;;;;;;;4986519;28;20028;-71
2022/07/30 05:55:20;;;;;;;10.50;9.52;;;;;;;;;;4993712;28;20050;-71
2022/07/30 05:58:01;;;;;;;11.50;9.90;;;;;;;;;;4972230;28;20039;-71
2022/07/30 06:00:27;;;;;;;9.98;9.18;;;;;;;;;;4989437;28;20548;-71
2022/07/30 06:02:54;;;;;;;13.23;10.55;;;;;;;;;;4967046;28;20047;-71
2022/07/30 06:05:42;;;;;;;11.02;9.88;;;;;;;;;;4958511;28;20046;-71
2022/07/30 06:08:07;;;;;;;9.50;8.63;;;;;;;;;;4967288;28;20084;-71
2022/07/30 06:10:33;;;;;;;9.45;8.63;;;;;;;;;;4971449;28;20659;-71
2022/07/30 06:12:59;;;;;;;9.73;8.93;;;;;;;;;;4971952;28;20035;-68
2022/07/30 06:15:25;;;;;;;9.48;8.52;;;;;;;;;;4967883;28;20031;-68
2022/07/30 06:17:51;;;;;;;9.35;8.38;;;;;;;;;;4959196;28;20039;-68
2022/07/30 06:20:21;;;;;;;9.50;8.40;;;;;;;;;;4971377;28;20058;-68
2022/07/30 06:23:03;;;;;;;9.02;8.23;;;;;;;;;;4964772;28;20051;-68
2022/07/30 06:25:41;;;;;;;10.18;7.88;;;;;;;;;;4961482;28;20407;-69
2022/07/30 06:28:06;;;;;;;10.77;8.02;;;;;;;;;;4972153;28;20029;-68
2022/07/30 06:30:32;;;;;;;8.65;7.95;;;;;;;;;;4955119;28;20092;-68
2022/07/30 06:32:58;;;;;;;10.63;7.75;;;;;;;;;;4963200;28;20036;-69
2022/07/30 06:35:24;;;;;;;9.20;7.93;;;;;;;;;;4975932;28;20645;-69
2022/07/30 06:37:50;;;;;;;8.65;7.78;;;;;;;;;;4964468;28;20035;-69
2022/07/30 06:40:16;;;;;;;13.32;7.95;;;;;;;;;;4973638;28;20044;-68
2022/07/30 06:42:59;;;;;;;8.02;7.30;;;;;;;;;;4971549;28;20042;-68
2022/07/30 06:45:47;;;;;;;8.90;7.15;;;;;;;;;;4960376;28;20522;-68
2022/07/30 06:48:23;;;;;;;8.00;7.20;;;;;;;;;;4964809;28;20029;-69
2022/07/30 06:50:50;;;;;;;7.75;7.05;;;;;;;;;;4962099;28;20035;-69
2022/07/30 06:53:16;;;;;;;9.57;7.40;;;;;;;;;;4990551;28;20133;-69
2022/07/30 06:56:02;;;;;;;7.88;7.10;;;;;;;;;;4994970;28;20051;-68
2022/07/30 06:58:38;;;;;;;7.43;6.72;;;;;;;;;;4967027;28;20047;-68
2022/07/30 07:01:23;;;;;;;11.88;7.88;;;;;;;;;;4949041;28;20469;-69
2022/07/30 07:03:50;;;;;;;8.57;7.60;;;;;;;;;;4977673;28;20039;-68
2022/07/30 07:06:16;;;;;;;8.90;7.20;;;;;;;;;;4972958;28;20048;-69
2022/07/30 07:08:42;;;;;;;8.32;7.43;;;;;;;;;;4959612;28;20031;-69
2022/07/30 07:11:11;;;;;;;9.60;7.32;;;;;;;;;;4992229;28;20480;-69
2022/07/30 07:13:44;;;;;;;8.80;7.47;;;;;;;;;;4976441;28;20061;-69
2022/07/30 07:16:14;;;;;;;8.68;7.65;;;;;;;;;;5021839;28;20668;-69
2022/07/30 07:18:44;;;;;;;8.68;7.78;;;;;;;;;;4988869;28;20047;-69
2022/07/30 07:21:10;;;;;;;7.90;7.30;;;;;;;;;;4962648;28;20086;-69
2022/07/30 07:23:36;;;;;;;9.02;7.70;;;;;;;;;;4965529;28;20031;-69
2022/07/30 07:26:02;;;;;;;8.15;7.13;;;;;;;;;;4996954;28;20051;-69
2022/07/30 07:28:30;;;;;;;10.17;8.20;;;;;;;;;;4976173;28;20114;-68
2022/07/30 07:30:56;;;;;;;9.00;8.20;;;;;;;;;;5000543;28;20119;-69
2022/07/30 07:33:21;;;;;;;9.00;8.13;;;;;;;;;;4982402;28;20368;-69
2022/07/30 07:35:48;;;;;;;9.52;8.02;;;;;;;;;;4970332;28;20043;-68
2022/07/30 07:38:18;;;;;;;9.30;8.40;;;;;;;;;;5000453;28;20043;-68
2022/07/30 07:40:43;;;;;;;;;;;;;;;;;;4965958;28;20515;-68
2022/07/30 07:43:09;;;;;;;11.13;7.80;;;;;;;;;;4971708;28;19923;-68
2022/07/30 07:45:35;;;;;;;10.05;7.97;;;;;;;;;;4973326;28;20551;-68
2022/07/30 07:48:06;;;;;;;9.98;8.70;;;;;;;;;;4960695;28;20028;-68
2022/07/30 07:50:55;;;;;;;11.05;8.82;;;;;;;;;;4947883;28;20084;-68
2022/07/30 07:53:24;;;;;;;8.93;7.85;;;;;;;;;;4995593;28;20060;-69
2022/07/30 07:55:51;;;;;;;9.27;8.07;;;;;;;;;;4967714;28;20036;-68
2022/07/30 07:58:18;;;;;;;9.18;8.30;;;;;;;;;;4983848;28;20493;-68
2022/07/30 08:00:43;;;;;;;11.57;7.30;;;;;;;;;;4965591;28;20071;-68
2022/07/30 08:03:09;;;;;;;9.52;7.20;;;;;;;;;;4974239;28;20041;-68
2022/07/30 08:05:35;;;;;;;8.13;7.43;;;;;;;;;;4995605;28;20044;-68
2022/07/30 08:08:17;;;;;;;13.68;6.95;;;;;;;;;;4996955;28;20086;-69
2022/07/30 08:11:08;;;;;;;7.70;6.90;;;;;;;;;;4969231;28;20049;-68
2022/07/30 08:13:53;;;;;;;9.32;7.63;;;;;;;;;;4966152;28;20042;-69
2022/07/30 08:16:34;;;;;;;8.73;7.18;;;;;;;;;;4973084;28;20031;-69
2022/07/30 08:19:22;;;;;;;9.73;7.07;;;;;;;;;;4963525;28;20571;-69
2022/07/30 08:21:58;;;;;;;8.40;7.60;;;;;;;;;;4964161;28;20533;-69
2022/07/30 08:24:28;;;;;;;9.93;7.60;;;;;;;;;;4960790;28;20506;-69
2022/07/30 08:26:53;;;;;;;7.95;6.80;;;;;;;;;;4982215;28;20066;-69
2022/07/30 08:29:20;;;;;;;7.80;7.10;;;;;;;;;;4975866;28;20067;-69
2022/07/30 08:31:46;;;;;;;8.20;7.43;;;;;;;;;;4989163;28;20696;-69
2022/07/30 08:34:13;;;;;;;7.75;6.95;;;;;;;;;;4965073;28;20043;-69
2022/07/30 08:36:39;;;;;;;7.72;6.93;;;;;;;;;;4978391;28;20037;-69
2022/07/30 08:39:04;;;;;;;7.95;7.25;;;;;;;;;;4998599;28;20325;-69
2022/07/30 08:41:31;;;;;;;8.52;7.32;;;;;;;;;;4972358;28;20062;-69
2022/07/30 08:43:59;;;;;;;7.72;6.85;;;;;;;;;;4966657;28;20043;-69
2022/07/30 08:46:30;;;;;;;7.45;6.95;;;;;;;;;;4977676;28;20065;-70
2022/07/30 08:49:06;;;;;;;8.48;7.65;;;;;;;;;;4990490;28;20023;-69
2022/07/30 08:51:33;;;;;;;7.35;6.70;;;;;;;;;;4971141;28;20047;-69
2022/07/30 08:54:21;;;;;;;8.35;6.85;;;;;;;;;;4982016;28;20027;-68
2022/07/30 08:56:50;;;;;;;7.60;6.80;;;;;;;;;;4971273;28;20035;-68
2022/07/30 08:59:16;;;;;;;9.32;6.78;;;;;;;;;;4996113;28;20496;-68
2022/07/30 09:01:42;;;;;;;8.07;6.18;;;;;;;;;;4997490;28;20063;-68
2022/07/30 09:04:08;;;;;;;7.40;6.60;;;;;;;;;;4972091;28;20046;-68
2022/07/30 09:06:35;;;;;;;7.95;6.30;;;;;;;;;;5018925;28;20650;-70
2022/07/30 09:09:02;;;;;;;;;;;;;;;;;;4957253;28;20123;-70
2022/07/30 09:11:28;;;;;;;7.32;6.53;;;;;;;;;;4970453;28;20023;-71
2022/07/30 09:13:54;;;;;;;7.88;7.07;;;;;;;;;;4959796;28;20031;-71
2022/07/30 09:16:22;;;;;;;6.95;6.35;;;;;;;;;;4995739;28;20502;-71
2022/07/30 09:18:49;;;;;;;9.52;7.47;;;;;;;;;;4971999;28;20113;-71
2022/07/30 09:21:23;;;;;;;6.25;5.65;;;;;;;;;;4967300;28;20615;-71
2022/07/30 09:23:59;;;;;;;9.85;6.45;;;;;;;;;;4959907;28;20072;-71
2022/07/30 09:27:05;;;;;;;7.18;6.50;;;;;;;;;;4917272;28;20111;-71
2022/07/30 09:29:58;;;;;;;5.53;5.13;;;;;;;;;;4914254;28;20043;-71
2022/07/30 09:32:50;;;;;;;7.28;5.93;;;;;;;;;;4982104;28;20034;-71
2022/07/30 09:35:39;;;;;;;6.45;5.00;;;;;;;;;;4942301;28;20035;-72
2022/07/30 09:38:09;;;;;;;5.22;4.72;;;;;;;;;;4969063;28;20791;-72
2022/07/30 09:40:55;;;;;;;5.72;4.55;;;;;;;;;;4966064;28;20046;-72
2022/07/30 09:43:46;;;;;;;5.63;5.10;;;;;;;;;;4953758;28;20031;-71
2022/07/30 09:46:20;;;;;;;9.80;5.57;;;;;;;;;;4983099;28;20041;-71
2022/07/30 09:48:47;;;;;;;7.22;5.60;;;;;;;;;;4985308;28;20025;-71
2022/07/30 09:51:13;;;;;;;5.53;5.03;;;;;;;;;;4961198;28;20052;-71
2022/07/30 09:53:58;;;;;;;6.72;6.13;;;;;;;;;;4960481;28;20040;-71
2022/07/30 09:56:26;;;;;;;6.50;5.80;;;;;;;;;;4974229;28;20037;-71
2022/07/30 09:58:53;;;;;;;;;;;;;;;;;;4985272;28;20075;-72
2022/07/30 10:01:19;;;;;;;6.30;5.70;;;;;;;;;;4969857;28;20446;-71
2022/07/30 10:04:08;;;;;;;9.50;5.60;;;;;;;;;;4972919;28;20035;-71
2022/07/30 10:07:04;;;;;;;6.60;5.78;;;;;;;;;;4993522;28;20035;-71
2022/07/30 10:09:43;;;;;;;9.25;5.93;;;;;;;;;;4980373;28;20039;-71
2022/07/30 10:12:12;;;;;;;6.80;6.20;;;;;;;;;;4965570;28;20085;-71
2022/07/30 10:14:45;;;;;;;8.13;6.43;;;;;;;;;;4963600;28;20043;-71
2022/07/30 10:17:13;;;;;;;6.65;6.05;;;;;;;;;;4989940;28;20039;-71
2022/07/30 10:19:41;;;;;;;9.10;6.32;;;;;;;;;;4976870;28;20097;-72
2022/07/30 10:22:19;;;;;;;5.97;5.47;;;;;;;;;;4976216;28;20035;-71
2022/07/30 10:25:06;;;;;;;9.55;5.82;;;;;;;;;;4983469;28;20043;-71
2022/07/30 10:27:51;;;;;;;9.43;5.50;;;;;;;;;;4978398;28;20510;-71
2022/07/30 10:30:26;;;;;;;5.97;5.50;;;;;;;;;;4949739;28;20039;-71
2022/07/30 10:32:52;;;;;;;7.93;6.63;;;;;;;;;;4957965;28;20071;-72
2022/07/30 10:35:17;;;;;;;6.18;5.57;;;;;;;;;;4968265;28;20103;-72
2022/07/30 10:37:48;;;;;;;6.95;6.25;;;;;;;;;;4964448;28;20035;-72
2022/07/30 10:40:16;;;;;;;7.40;4.95;;;;;;;;;;4975830;28;20062;-72
2022/07/30 10:43:07;;;;;;;7.78;5.90;;;;;;;;;;4967546;28;20035;-72
2022/07/30 10:45:42;;;;;;;6.10;5.50;;;;;;;;;;4977160;28;20051;-71
2022/07/30 10:48:07;;;;;;;5.68;5.25;;;;;;;;;;4992404;28;20029;-72
2022/07/30 10:50:49;;;;;;;5.63;5.05;;;;;;;;;;4982245;28;20039;-72
2022/07/30 10:53:57;;;;;;;6.95;5.22;;;;;;;;;;4963501;28;20078;-72
2022/07/30 10:56:24;;;;;;;6.35;5.50;;;;;;;;;;4966907;28;20091;-72
2022/07/30 10:59:08;;;;;;;7.22;5.90;;;;;;;;;;4975888;28;20035;-71
2022/07/30 11:01:46;;;;;;;6.20;5.60;;;;;;;;;;4973989;28;20120;-72
2022/07/30 11:04:26;;;;;;;5.83;5.43;;;;;;;;;;4976863;28;20039;-72
2022/07/30 11:07:22;;;;;;;7.07;4.88;;;;;;;;;;4970014;28;20050;-72
2022/07/30 11:09:49;;;;;;;9.73;5.10;;;;;;;;;;4964735;28;20042;-72
2022/07/30 11:12:41;;;;;;;5.88;5.32;;;;;;;;;;4976684;28;20035;-72
2022/07/30 11:15:20;;;;;;;5.88;5.47;;;;;;;;;;4961675;28;20035;-72
2022/07/30 11:18:07;;;;;;;9.20;5.13;;;;;;;;;;4980223;28;20047;-72
2022/07/30 11:20:34;;;;;;;6.50;5.90;;;;;;;;;;4973358;28;20508;-72
2022/07/30 11:23:10;;;;;;;7.18;5.68;;;;;;;;;;4976638;28;20027;-71
2022/07/30 11:25:35;;;;;;;5.50;5.00;;;;;;;;;;4981512;28;20589;-72
2022/07/30 11:28:01;;;;;;;7.47;5.82;;;;;;;;;;4964061;28;20490;-71
2022/07/30 11:30:27;;;;;;;6.32;5.65;;;;;;;;;;4952246;28;20033;-71
2022/07/30 11:33:13;;;;;;;6.25;5.82;;;;;;;;;;4976299;28;20043;-72
2022/07/30 11:35:40;;;;;;;10.38;5.88;;;;;;;;;;4979136;28;20047;-71
2022/07/30 11:38:14;;;;;;;6.35;5.75;;;;;;;;;;4971274;28;20666;-72
2022/07/30 11:40:46;;;;;;;8.38;5.97;;;;;;;;;;4950827;28;20531;-72
2022/07/30 11:43:23;;;;;;;9.30;6.00;;;;;;;;;;4971213;28;20069;-72
2022/07/30 11:46:06;;;;;;;5.63;5.25;;;;;;;;;;4969035;28;20039;-72
2022/07/30 11:48:34;;;;;;;5.97;5.50;;;;;;;;;;4954443;28;20039;-72
2022/07/30 11:51:00;;;;;;;7.43;5.70;;;;;;;;;;4963855;28;20070;-72
2022/07/30 11:53:26;;;;;;;6.15;5.65;;;;;;;;;;4996186;28;20664;-72
2022/07/30 11:55:55;;;;;;;5.82;5.43;;;;;;;;;;4961173;28;20062;-72
2022/07/30 11:58:32;;;;;;;5.75;5.25;;;;;;;;;;4965966;28;20047;-72
2022/07/30 12:01:03;;;;;;;5.90;5.43;;;;;;;;;;4995047;28;20032;-72
2022/07/30 12:03:32;;;;;;;5.97;5.40;;;;;;;;;;4967843;28;20057;-72
2022/07/30 12:06:12;;;;;;;5.82;5.40;;;;;;;;;;4959854;28;20035;-72
2022/07/30 12:08:42;;;;;;;5.63;5.18;;;;;;;;;;4977651;28;20040;-72
2022/07/30 12:11:09;;;;;;;6.72;6.00;;;;;;;;;;5019140;28;20032;-72
2022/07/30 12:13:35;;;;;;;6.30;5.80;;;;;;;;;;4980434;28;20042;-72
2022/07/30 12:16:07;;;;;;;5.55;5.15;;;;;;;;;;4975125;28;20056;-71
2022/07/30 12:18:33;;;;;;;6.20;5.70;;;;;;;;;;4963556;28;20049;-72
2022/07/30 12:21:02;;;;;;;6.25;5.50;;;;;;;;;;4960124;28;20039;-72
2022/07/30 12:23:30;;;;;;;6.22;5.72;;;;;;;;;;4987642;28;20115;-72
2022/07/30 12:25:56;;;;;;;6.65;6.05;;;;;;;;;;5007275;28;20077;-72
2022/07/30 12:28:25;;;;;;;6.28;5.88;;;;;;;;;;4958633;28;20034;-72
2022/07/30 12:30:51;;;;;;;6.20;5.63;;;;;;;;;;4977708;28;20721;-72
2022/07/30 12:33:19;;;;;;;6.43;5.85;;;;;;;;;;4978597;28;20076;-72
2022/07/30 12:35:58;;;;;;;5.95;5.45;;;;;;;;;;4980686;28;20073;-72
2022/07/30 12:38:25;;;;;;;6.28;5.82;;;;;;;;;;4972691;28;20035;-72
2022/07/30 12:40:58;;;;;;;6.18;5.60;;;;;;;;;;4991257;28;20043;-72
2022/07/30 12:43:52;;;;;;;6.38;5.63;;;;;;;;;;4981805;28;20027;-72
2022/07/30 12:46:18;;;;;;;10.63;5.40;;;;;;;;;;4973753;28;20046;-72
2022/07/30 12:48:54;;;;;;;6.10;5.50;;;;;;;;;;4961747;28;20027;-72
2022/07/30 12:51:21;;;;;;;6.38;5.80;;;;;;;;;;4977505;28;20041;-72
2022/07/30 12:53:47;;;;;;;5.85;5.28;;;;;;;;;;5001471;28;20043;-72
2022/07/30 12:56:19;;;;;;;6.05;5.53;;;;;;;;;;4964493;28;20130;-71
2022/07/30 12:58:44;;;;;;;6.32;5.78;;;;;;;;;;4980338;28;20071;-72
2022/07/30 13:01:11;;;;;;;5.95;5.55;;;;;;;;;;4963918;28;20132;-72
2022/07/30 13:03:40;;;;;;;5.80;5.30;;;;;;;;;;4981091;28;20023;-72
2022/07/30 13:06:19;;;;;;;5.80;5.20;;;;;;;;;;4983603;28;21339;-72
2022/07/30 13:08:53;;;;;;;5.60;5.15;;;;;;;;;;4961269;28;20059;-72
2022/07/30 13:11:24;;;;;;;5.47;5.18;;;;;;;;;;4971406;28;20467;-72
2022/07/30 13:13:51;;;;;;;6.22;5.53;;;;;;;;;;4964646;28;20038;-71
2022/07/30 13:16:18;;;;;;;5.95;5.45;;;;;;;;;;4988032;28;20494;-72
2022/07/30 13:18:44;;;;;;;6.32;5.30;;;;;;;;;;4964462;28;20035;-71
2022/07/30 13:21:10;;;;;;;6.80;5.60;;;;;;;;;;4974936;28;20068;-72
2022/07/30 13:23:40;;;;;;;6.18;5.57;;;;;;;;;;4976986;28;20029;-71
2022/07/30 13:26:07;;;;;;;5.68;5.20;;;;;;;;;;4980001;28;20143;-71
2022/07/30 13:28:34;;;;;;;5.55;5.15;;;;;;;;;;4965385;28;20086;-71
2022/07/30 13:31:00;;;;;;;6.07;5.68;;;;;;;;;;4978841;28;20062;-71
2022/07/30 13:33:25;;;;;;;6.22;5.63;;;;;;;;;;4953601;28;20043;-71
2022/07/30 13:35:51;;;;;;;6.18;5.60;;;;;;;;;;4955413;28;20035;-70
2022/07/30 13:38:17;;;;;;;5.70;5.30;;;;;;;;;;4958505;28;20058;-71
2022/07/30 13:40:43;;;;;;;6.10;5.60;;;;;;;;;;4954266;28;20661;-70
2022/07/30 13:43:08;;;;;;;5.80;5.40;;;;;;;;;;4971370;28;20037;-70
2022/07/30 13:45:34;;;;;;;5.80;5.40;;;;;;;;;;4957376;28;20036;-70
2022/07/30 13:48:00;;;;;;;6.13;5.55;;;;;;;;;;4993504;28;20025;-70
2022/07/30 13:50:26;;;;;;;9.40;5.80;;;;;;;;;;4973498;28;20573;-70
2022/07/30 13:52:51;;;;;;;7.47;5.90;;;;;;;;;;4967222;28;20031;-70
2022/07/30 13:55:17;;;;;;;5.70;5.30;;;;;;;;;;4963400;28;20029;-70
2022/07/30 13:57:43;;;;;;;5.90;5.50;;;;;;;;;;4979370;28;20041;-70
2022/07/30 14:00:09;;;;;;;5.85;5.35;;;;;;;;;;4976551;28;20054;-70
2022/07/30 14:02:35;;;;;;;6.43;5.32;;;;;;;;;;4954622;28;20035;-70
2022/07/30 14:05:07;;;;;;;5.65;5.18;;;;;;;;;;4980103;28;20081;-70
2022/07/30 14:07:34;;;;;;;6.20;5.70;;;;;;;;;;4980453;28;20039;-70
2022/07/30 14:09:59;;;;;;;5.60;5.20;;;;;;;;;;4971313;28;20046;-70
2022/07/30 14:12:25;;;;;;;5.72;5.32;;;;;;;;;;5005928;28;20025;-70
2022/07/30 14:14:51;;;;;;;6.15;5.65;;;;;;;;;;4989164;28;20036;-70
2022/07/30 14:17:16;;;;;;;5.93;5.53;;;;;;;;;;4977051;28;20033;-70
2022/07/30 14:19:42;;;;;;;6.18;5.78;;;;;;;;;;4969763;28;20169;-70
2022/07/30 14:22:07;;;;;;;6.45;5.95;;;;;;;;;;4967944;28;20039;-71
2022/07/30 14:24:33;;;;;;;6.45;6.03;;;;;;;;;;4983334;28;20029;-70
2022/07/30 14:26:59;;;;;;;5.72;5.32;;;;;;;;;;4981778;28;20725;-72
2022/07/30 14:29:27;;;;;;;6.32;5.88;;;;;;;;;;4974058;28;20426;-71
2022/07/30 14:31:54;;;;;;;6.75;6.13;;;;;;;;;;4986679;28;20051;-71
2022/07/30 14:34:19;;;;;;;7.10;5.68;;;;;;;;;;5000087;28;20035;-71
2022/07/30 14:36:45;;;;;;;5.75;5.35;;;;;;;;;;4988551;28;20065;-71
2022/07/30 14:39:11;;;;;;;6.40;5.80;;;;;;;;;;4970012;28;20047;-70
2022/07/30 14:41:37;;;;;;;6.75;5.60;;;;;;;;;;4978547;28;20027;-71
2022/07/30 14:44:04;;;;;;;6.10;5.60;;;;;;;;;;4974105;28;20087;-71
2022/07/30 14:46:30;;;;;;;5.80;5.40;;;;;;;;;;4977459;28;20035;-71
2022/07/30 14:48:55;;;;;;;6.25;5.65;;;;;;;;;;4977341;28;20033;-71
2022/07/30 14:51:21;;;;;;;6.13;5.63;;;;;;;;;;4999062;28;20403;-71
2022/07/30 14:53:49;;;;;;;6.00;5.50;;;;;;;;;;4986770;28;20041;-71